Portada
METAR-TAF:

METAR-TAF

Aeroports :

Obihiro, Japó

latitud: 42-44N, longitud: 143-13E, altitud: 149 m

Observació

L'informe es va fer fa 8 hores i 30 minuts, a les 11:00 UTC
Vent 1 kt amb direcció variable
Temperatura -12°C
Humitat 78%
Pressió 1021 hPa
Visibilitat 10 km o més
sense núvols per sota de 1500 mi sense presència de cumulonimbus.

METAR: RJCB 241100Z VRB01KT CAVOK M12/M15 Q1021

Hora: 04:30 (19:30 UTC)

Pronòstic

L'informe es va fer fa 2 hores i 24 minuts, a les 17:06 UTC
Pronòstic vàlid del 24 a les 18 UTC al 26 a les 00 UTC
Vent 5 kt del Nord/Nord-Oest
Visibilitat 10 km o més
Escasses núvols a una alçada de 1000 ft
Núvols disperses a una alçada de 2000 ft

TAF: RJCB 241706Z 2418/2600 34005KT 9999 FEW010 SCT020

Observacions i pronòstics meteorològics de més de 4000 aeroports (METAR i TAF).

Les estacions disponibles són els punts grocs i vermells al mapa.

Posi el ratolí al punt desitjat per veure el nom de l'estació.

Feu clic per veure les observacions i els pronòstics meteorològics.

Per canviar el mapa: feu clic els botons verds amb una creu de color negre per apropar; al botó verd amb un guió per allunyar la imatge; o en les fletxes verdes per a mapes adjacents.


METAR-TAF: